createdAt,value
2017-05-12T00:01:13.480Z,9.60
2017-05-12T00:03:42.500Z,4.77
2017-05-12T00:06:10.778Z,4.73
2017-05-12T00:08:39.104Z,10.30
2017-05-12T00:11:07.468Z,12.38
2017-05-12T00:13:35.748Z,6.15
2017-05-12T00:16:04.076Z,8.68
2017-05-12T00:18:32.356Z,5.68
2017-05-12T00:21:00.644Z,11.08
2017-05-12T00:23:28.977Z,41.05
2017-05-12T00:25:57.263Z,20.92
2017-05-12T00:28:25.547Z,11.52
2017-05-12T00:30:55.018Z,13.55
2017-05-12T00:33:23.302Z,5.28
2017-05-12T00:35:51.672Z,6.22
2017-05-12T00:38:20.151Z,7.63
2017-05-12T00:40:48.432Z,9.95
2017-05-12T00:43:16.727Z,11.13
2017-05-12T00:45:45.044Z,6.45
2017-05-12T00:48:13.369Z,9.13
2017-05-12T00:50:41.745Z,3.72
2017-05-12T00:53:10.325Z,9.83
2017-05-12T00:55:38.701Z,3.47
2017-05-12T00:58:06.975Z,5.30
2017-05-12T01:00:35.360Z,6.67
2017-05-12T01:03:03.660Z,5.02
2017-05-12T01:05:32.126Z,8.55
2017-05-12T01:08:00.704Z,3.42
2017-05-12T01:10:29.077Z,2.50
2017-05-12T01:12:57.461Z,3.32
2017-05-12T01:15:26.152Z,2.23
2017-05-12T01:17:54.435Z,3.15
2017-05-12T01:20:22.729Z,4.93
2017-05-12T01:22:51.070Z,2.15
2017-05-12T01:25:19.352Z,2.35
2017-05-12T01:27:47.631Z,3.02
2017-05-12T01:30:16.011Z,2.18
2017-05-12T01:32:44.284Z,2.22
2017-05-12T01:35:12.564Z,2.28
2017-05-12T01:37:40.950Z,2.10
2017-05-12T01:40:09.433Z,1.82
2017-05-12T01:42:37.709Z,1.82
2017-05-12T01:45:06.028Z,2.55
2017-05-12T01:47:35.072Z,1.83
2017-05-12T01:50:03.353Z,2.22
2017-05-12T01:52:31.627Z,2.47
2017-05-12T01:55:00.207Z,2.18
2017-05-12T01:57:28.470Z,3.38
2017-05-12T01:59:56.738Z,2.92
2017-05-12T02:02:25.256Z,5.32
2017-05-12T02:04:53.523Z,2.83
2017-05-12T02:07:22.766Z,3.35
2017-05-12T02:09:51.079Z,2.85
2017-05-12T02:12:19.349Z,2.05
2017-05-12T02:14:47.695Z,2.37
2017-05-12T02:17:16.750Z,3.05
2017-05-12T02:19:45.020Z,8.83
2017-05-12T02:22:13.296Z,2.60
2017-05-12T02:24:41.883Z,7.40
2017-05-12T02:27:10.151Z,2.22
2017-05-12T02:29:38.423Z,3.67
2017-05-12T02:32:07.091Z,2.47
2017-05-12T02:34:35.358Z,5.08
2017-05-12T02:37:03.623Z,2.93
2017-05-12T02:39:32.882Z,2.95
2017-05-12T02:42:01.154Z,3.00
2017-05-12T02:44:29.423Z,3.27
2017-05-12T02:46:57.908Z,3.13
2017-05-12T02:49:26.178Z,2.68
2017-05-12T02:51:54.450Z,2.48
2017-05-12T02:54:22.747Z,2.83
2017-05-12T02:56:51.042Z,3.47
2017-05-12T02:59:19.315Z,2.15
2017-05-12T03:01:47.626Z,3.48
2017-05-12T03:04:16.635Z,3.03
2017-05-12T03:06:44.904Z,2.07
2017-05-12T03:09:13.966Z,2.12
2017-05-12T03:11:42.279Z,2.17
2017-05-12T03:14:10.534Z,2.57
2017-05-12T03:16:38.935Z,2.48
2017-05-12T03:19:07.946Z,2.08
2017-05-12T03:21:36.211Z,3.55
2017-05-12T03:24:04.511Z,2.08
2017-05-12T03:26:32.803Z,2.40
2017-05-12T03:29:01.073Z,2.40
2017-05-12T03:31:29.391Z,2.18
2017-05-12T03:33:57.660Z,3.32
2017-05-12T03:36:25.931Z,3.32
2017-05-12T03:38:54.244Z,7.15
2017-05-12T03:41:23.251Z,2.75
2017-05-12T03:43:51.518Z,4.33
2017-05-12T03:46:19.827Z,4.60
2017-05-12T03:48:48.099Z,3.02
2017-05-12T03:51:16.366Z,5.90
2017-05-12T03:53:44.869Z,4.18
2017-05-12T03:56:13.139Z,4.50
2017-05-12T03:58:41.412Z,5.55
2017-05-12T04:01:09.711Z,2.88
2017-05-12T04:03:38.719Z,2.40
2017-05-12T04:06:07.835Z,2.28
2017-05-12T04:08:36.159Z,2.70
2017-05-12T04:11:05.175Z,1.95
2017-05-12T04:13:34.187Z,2.20
2017-05-12T04:16:02.490Z,2.15
2017-05-12T04:18:31.527Z,2.00
2017-05-12T04:20:59.807Z,1.88
2017-05-12T04:23:28.124Z,2.73
2017-05-12T04:25:56.402Z,1.67
2017-05-12T04:28:24.667Z,2.37
2017-05-12T04:30:52.968Z,2.25
2017-05-12T04:33:22.003Z,1.78
2017-05-12T04:35:50.268Z,2.15
2017-05-12T04:38:19.279Z,1.88
2017-05-12T04:40:47.595Z,2.48
2017-05-12T04:43:15.858Z,1.92
2017-05-12T04:45:44.129Z,2.53
2017-05-12T04:48:12.539Z,2.22
2017-05-12T04:50:40.802Z,2.45
2017-05-12T04:53:09.082Z,2.07
2017-05-12T04:55:37.399Z,2.08
2017-05-12T04:58:05.667Z,2.08
2017-05-12T05:00:33.934Z,2.50
2017-05-12T05:03:02.252Z,2.50
2017-05-12T05:05:30.519Z,2.50
2017-05-12T05:07:59.527Z,2.57
2017-05-12T05:10:27.839Z,2.28
2017-05-12T05:12:56.103Z,2.30
2017-05-12T05:15:24.376Z,2.05
2017-05-12T05:17:52.682Z,2.30
2017-05-12T05:20:20.956Z,2.10
2017-05-12T05:22:49.219Z,2.25
2017-05-12T05:25:17.698Z,2.50
2017-05-12T05:27:45.970Z,2.20
2017-05-12T05:30:14.234Z,2.25
2017-05-12T05:32:42.546Z,2.60
2017-05-12T05:35:10.828Z,2.53
2017-05-12T05:37:39.095Z,2.83
2017-05-12T05:40:07.409Z,2.50
2017-05-12T05:42:36.419Z,2.35
2017-05-12T05:45:05.426Z,2.10
2017-05-12T05:47:33.931Z,2.77
2017-05-12T05:50:02.198Z,2.23
2017-05-12T05:52:30.467Z,2.40
2017-05-12T05:54:58.754Z,2.38
2017-05-12T05:57:27.018Z,2.25
2017-05-12T05:59:55.623Z,2.83
2017-05-12T06:02:23.935Z,3.08
2017-05-12T06:04:52.202Z,2.87
2017-05-12T06:07:20.683Z,2.48
2017-05-12T06:09:48.951Z,2.62
2017-05-12T06:12:17.218Z,2.18
2017-05-12T06:14:45.690Z,2.53
2017-05-12T06:17:13.962Z,2.30
2017-05-12T06:19:42.231Z,2.43
2017-05-12T06:22:10.728Z,2.68
2017-05-12T06:24:38.995Z,2.68
2017-05-12T06:27:07.267Z,2.47
2017-05-12T06:29:35.568Z,2.78
2017-05-12T06:32:03.838Z,2.65
2017-05-12T06:34:32.112Z,2.40
2017-05-12T06:37:00.436Z,2.87
2017-05-12T06:39:28.703Z,2.78
2017-05-12T06:41:56.972Z,2.42
2017-05-12T06:44:26.205Z,2.75
2017-05-12T06:46:54.472Z,2.68
2017-05-12T06:49:22.742Z,2.56
2017-05-12T06:51:51.055Z,2.10
2017-05-12T06:54:19.326Z,2.43
2017-05-12T06:56:47.595Z,2.30
2017-05-12T06:59:15.919Z,3.33
2017-05-12T07:01:44.927Z,2.38
2017-05-12T07:04:13.202Z,2.50
2017-05-12T07:06:41.621Z,2.60
2017-05-12T07:09:09.898Z,2.80
2017-05-12T07:11:38.169Z,2.03
2017-05-12T07:14:06.755Z,2.70
2017-05-12T07:16:35.028Z,2.42
2017-05-12T07:19:03.290Z,2.20
2017-05-12T07:21:31.614Z,3.07
2017-05-12T07:23:59.892Z,2.15
2017-05-12T07:26:28.156Z,2.92
2017-05-12T07:28:56.447Z,2.34
2017-05-12T07:31:24.747Z,2.70
2017-05-12T07:33:54.094Z,2.52
2017-05-12T07:36:22.363Z,2.60
2017-05-12T07:38:50.626Z,2.82
2017-05-12T07:41:18.924Z,2.14
2017-05-12T07:43:47.192Z,2.60
2017-05-12T07:46:15.466Z,2.48
2017-05-12T07:48:43.770Z,2.70
2017-05-12T07:51:12.039Z,2.70
2017-05-12T07:53:40.315Z,2.56
2017-05-12T07:56:08.895Z,2.32
2017-05-12T07:58:37.166Z,2.30
2017-05-12T08:01:05.426Z,2.30
2017-05-12T08:03:33.739Z,2.54
2017-05-12T08:06:02.003Z,2.50
2017-05-12T08:08:30.266Z,2.56
2017-05-12T08:10:58.559Z,2.24
2017-05-12T08:13:26.854Z,2.48
2017-05-12T08:15:55.119Z,2.46
2017-05-12T08:18:23.690Z,2.60
2017-05-12T08:20:51.954Z,2.68
2017-05-12T08:23:20.222Z,2.28
2017-05-12T08:25:48.685Z,2.16
2017-05-12T08:28:17.690Z,2.46
2017-05-12T08:30:45.958Z,2.30
2017-05-12T08:33:14.267Z,2.08
2017-05-12T08:35:42.538Z,2.30
2017-05-12T08:38:10.802Z,2.36
2017-05-12T08:40:39.107Z,2.78
2017-05-12T08:43:07.370Z,2.60
2017-05-12T08:45:35.630Z,2.68
2017-05-12T08:48:04.031Z,2.50
2017-05-12T08:50:32.295Z,2.14
2017-05-12T08:53:00.563Z,2.60
2017-05-12T08:55:28.869Z,2.56
2017-05-12T08:57:57.135Z,3.24
2017-05-12T09:00:25.397Z,2.50
2017-05-12T09:02:54.103Z,2.56
2017-05-12T09:05:22.365Z,2.48
2017-05-12T09:07:50.638Z,2.66
2017-05-12T09:10:18.943Z,2.48
2017-05-12T09:12:47.198Z,2.58
2017-05-12T09:15:15.458Z,3.34
2017-05-12T09:17:43.970Z,2.20
2017-05-12T09:20:12.235Z,2.52
2017-05-12T09:22:40.503Z,2.50
2017-05-12T09:25:08.799Z,2.22
2017-05-12T09:27:37.067Z,2.32
2017-05-12T09:30:05.362Z,2.50
2017-05-12T09:32:33.630Z,2.62
2017-05-12T09:35:05.160Z,2.34
2017-05-12T09:37:33.430Z,2.44
2017-05-12T09:40:01.694Z,2.72
2017-05-12T09:42:30.007Z,3.26
2017-05-12T09:44:58.275Z,3.18
2017-05-12T09:47:26.546Z,2.74
2017-05-12T09:49:54.856Z,2.62
2017-05-12T09:52:23.122Z,3.18
2017-05-12T09:54:51.386Z,3.16
2017-05-12T09:57:19.954Z,2.58
2017-05-12T09:59:48.218Z,3.18
2017-05-12T10:02:16.484Z,2.78
2017-05-12T10:04:44.796Z,3.18
2017-05-12T10:07:13.063Z,4.00
2017-05-12T10:09:41.328Z,3.56
2017-05-12T10:12:09.630Z,3.42
2017-05-12T10:14:37.895Z,3.20
2017-05-12T10:17:06.159Z,4.66
2017-05-12T10:19:34.451Z,3.48
2017-05-12T10:22:02.711Z,3.40
2017-05-12T10:24:31.014Z,3.74
2017-05-12T10:26:59.283Z,3.58
2017-05-12T10:29:28.287Z,3.46
2017-05-12T10:31:56.606Z,3.54
2017-05-12T10:34:24.867Z,3.90
2017-05-12T10:36:53.132Z,3.76
2017-05-12T10:39:21.546Z,3.60
2017-05-12T10:41:49.816Z,3.22
2017-05-12T10:44:18.095Z,3.40
2017-05-12T10:46:46.559Z,4.60
2017-05-12T10:49:14.819Z,3.60
2017-05-12T10:51:43.085Z,3.22
2017-05-12T10:54:11.370Z,2.94
2017-05-12T10:56:39.680Z,3.00
2017-05-12T10:59:07.942Z,3.46
2017-05-12T11:01:36.206Z,3.62
2017-05-12T11:04:04.524Z,3.46
2017-05-12T11:06:32.790Z,5.58
2017-05-12T11:09:01.054Z,7.60
2017-05-12T11:11:29.530Z,7.78
2017-05-12T11:13:57.796Z,7.22
2017-05-12T11:16:26.071Z,3.68
2017-05-12T11:18:59.068Z,3.12
2017-05-12T11:21:27.334Z,2.88
2017-05-12T11:23:55.598Z,2.90
2017-05-12T11:26:23.887Z,3.02
2017-05-12T11:28:52.178Z,2.88
2017-05-12T11:31:20.447Z,3.00
2017-05-12T11:33:48.745Z,2.53
2017-05-12T11:36:17.039Z,2.72
2017-05-12T11:38:45.306Z,2.62
2017-05-12T11:41:13.619Z,2.92
2017-05-12T11:43:42.622Z,2.60
2017-05-12T11:46:11.631Z,2.98
2017-05-12T11:48:40.251Z,8.12
2017-05-12T11:51:08.510Z,5.74
2017-05-12T11:53:37.118Z,4.04
2017-05-12T11:56:05.406Z,7.18
2017-05-12T11:58:33.670Z,9.24
2017-05-12T12:01:01.963Z,9.38
2017-05-12T12:03:30.715Z,3.84
2017-05-12T12:05:58.975Z,4.48
2017-05-12T12:08:27.246Z,3.88
2017-05-12T12:10:55.538Z,6.88
2017-05-12T12:13:23.811Z,7.90
2017-05-12T12:15:52.090Z,6.54
2017-05-12T12:18:20.578Z,5.22
2017-05-12T12:20:48.838Z,4.90
2017-05-12T12:23:17.103Z,10.12
2017-05-12T12:25:45.411Z,4.06
2017-05-12T12:28:13.679Z,3.70
2017-05-12T12:30:42.055Z,3.88
2017-05-12T12:33:11.159Z,5.68
2017-05-12T12:35:39.451Z,12.82
2017-05-12T12:38:07.727Z,4.28
2017-05-12T12:40:36.028Z,22.64
2017-05-12T12:43:04.343Z,4.50
2017-05-12T12:45:32.613Z,5.70
2017-05-12T12:48:01.627Z,3.60
2017-05-12T12:50:30.150Z,7.60
2017-05-12T12:53:00.388Z,3.64
2017-05-12T12:55:29.410Z,3.04
2017-05-12T12:57:58.452Z,4.88
2017-05-12T13:00:26.719Z,5.02
2017-05-12T13:02:55.199Z,3.92
2017-05-12T13:05:23.503Z,3.36
2017-05-12T13:07:51.776Z,3.12
2017-05-12T13:10:20.231Z,3.12
2017-05-12T13:12:48.514Z,3.62
2017-05-12T13:15:16.815Z,3.36
2017-05-12T13:17:45.442Z,3.72
2017-05-12T13:20:13.707Z,3.84
2017-05-12T13:22:42.761Z,3.04
2017-05-12T13:25:11.077Z,2.96
2017-05-12T13:27:40.091Z,3.24
2017-05-12T13:30:08.497Z,3.22
2017-05-12T13:32:36.774Z,3.62
2017-05-12T13:35:05.044Z,3.42
2017-05-12T13:37:33.349Z,3.46
2017-05-12T13:40:01.617Z,4.28
2017-05-12T13:42:29.958Z,3.94
2017-05-12T13:44:58.235Z,3.74
2017-05-12T13:47:26.903Z,4.12
2017-05-12T13:49:55.223Z,4.18
2017-05-12T13:52:23.520Z,13.54
2017-05-12T13:54:51.815Z,4.80
2017-05-12T13:57:20.133Z,4.56
2017-05-12T13:59:48.411Z,3.66
2017-05-12T14:02:16.684Z,4.06
2017-05-12T14:04:44.996Z,11.60
2017-05-12T14:07:13.281Z,7.44
2017-05-12T14:09:41.587Z,3.64
2017-05-12T14:12:09.940Z,6.60
2017-05-12T14:14:38.213Z,3.20
2017-05-12T14:17:06.551Z,3.22
2017-05-12T14:19:34.880Z,3.78
2017-05-12T14:22:04.183Z,4.58
2017-05-12T14:24:33.880Z,2.98
2017-05-12T14:27:02.215Z,2.96
2017-05-12T14:29:30.483Z,2.70
2017-05-12T14:31:59.623Z,4.82
2017-05-12T14:34:28.815Z,3.18
2017-05-12T14:36:57.083Z,2.08
2017-05-12T14:39:25.508Z,2.66
2017-05-12T14:41:54.295Z,8.60
2017-05-12T14:44:22.569Z,2.48
2017-05-12T14:46:50.897Z,1.92
2017-05-12T14:49:19.203Z,2.54
2017-05-12T14:51:47.485Z,2.14
2017-05-12T14:54:15.964Z,7.82
2017-05-12T14:56:44.240Z,2.42
2017-05-12T14:59:13.438Z,5.32
2017-05-12T15:01:41.935Z,1.68
2017-05-12T15:04:10.215Z,1.72
2017-05-12T15:06:38.483Z,2.26
2017-05-12T15:09:06.797Z,2.30
2017-05-12T15:11:36.152Z,3.50
2017-05-12T15:14:04.442Z,2.14
2017-05-12T15:16:32.720Z,2.12
2017-05-12T15:19:01.027Z,1.96
2017-05-12T15:21:30.042Z,1.44
2017-05-12T15:23:58.340Z,1.92
2017-05-12T15:26:26.706Z,1.92
2017-05-12T15:28:54.995Z,1.92
2017-05-12T15:31:23.313Z,1.72
2017-05-12T15:33:51.621Z,1.86
2017-05-12T15:36:19.911Z,1.52
2017-05-12T15:38:48.228Z,1.88
2017-05-12T15:41:16.507Z,3.02
2017-05-12T15:43:44.832Z,2.28
2017-05-12T15:46:14.087Z,2.08
2017-05-12T15:48:42.366Z,3.54
2017-05-12T15:51:10.630Z,2.20
2017-05-12T15:53:39.875Z,1.70
2017-05-12T15:56:08.142Z,1.90
2017-05-12T15:58:36.416Z,1.30
2017-05-12T16:01:04.723Z,2.10
2017-05-12T16:03:32.991Z,2.14
2017-05-12T16:06:01.255Z,1.40
2017-05-12T16:08:29.543Z,1.74
2017-05-12T16:10:57.838Z,1.40
2017-05-12T16:13:26.094Z,1.84
2017-05-12T16:15:54.402Z,2.04
2017-05-12T16:18:22.679Z,1.54
2017-05-12T16:20:50.942Z,1.80
2017-05-12T16:23:19.250Z,1.86
2017-05-12T16:25:48.249Z,1.60
2017-05-12T16:28:17.659Z,1.60
2017-05-12T16:30:46.695Z,1.54
2017-05-12T16:33:14.987Z,1.58
2017-05-12T16:35:43.252Z,1.64
2017-05-12T16:38:11.547Z,1.58
2017-05-12T16:40:39.836Z,1.92
2017-05-12T16:43:08.103Z,1.28
2017-05-12T16:45:36.499Z,1.46
2017-05-12T16:48:04.764Z,1.74
2017-05-12T16:50:33.025Z,1.44
2017-05-12T16:53:01.605Z,4.12
2017-05-12T16:55:29.871Z,8.36
2017-05-12T16:57:58.139Z,3.16
2017-05-12T17:00:26.446Z,4.56
2017-05-12T17:02:54.719Z,16.36
2017-05-12T17:05:22.983Z,3.18
2017-05-12T17:07:51.562Z,4.30
2017-05-12T17:10:19.814Z,5.42
2017-05-12T17:12:48.075Z,2.60
2017-05-12T17:15:16.467Z,4.22
2017-05-12T17:17:44.760Z,3.68
2017-05-12T17:20:13.043Z,2.82
2017-05-12T17:22:41.339Z,3.60
2017-05-12T17:25:09.598Z,2.40
2017-05-12T17:27:37.901Z,2.78
2017-05-12T17:30:06.970Z,2.12
2017-05-12T17:32:35.241Z,2.98
2017-05-12T17:35:03.554Z,1.70
2017-05-12T17:37:31.873Z,2.22
2017-05-12T17:40:00.147Z,2.62
2017-05-12T17:42:28.486Z,1.86
2017-05-12T17:44:57.495Z,1.62
2017-05-12T17:47:25.766Z,2.64
2017-05-12T17:49:54.098Z,6.08
2017-05-12T17:52:22.363Z,3.68
2017-05-12T17:54:50.627Z,5.00
2017-05-12T17:57:19.075Z,5.62
2017-05-12T17:59:47.343Z,8.44
2017-05-12T18:02:15.648Z,2.62
2017-05-12T18:04:44.690Z,3.46
2017-05-12T18:07:12.954Z,3.50
2017-05-12T18:09:41.218Z,2.22
2017-05-12T18:12:09.529Z,4.10
2017-05-12T18:14:37.790Z,8.24
2017-05-12T18:17:06.055Z,2.68
2017-05-12T18:19:34.351Z,3.70
2017-05-12T18:22:02.618Z,4.94
2017-05-12T18:24:31.628Z,3.96
2017-05-12T18:27:04.379Z,2.50
2017-05-12T18:29:32.646Z,2.10
2017-05-12T18:32:00.914Z,2.80
2017-05-12T18:34:29.225Z,2.22
2017-05-12T18:36:57.495Z,4.36
2017-05-12T18:39:25.758Z,3.36
2017-05-12T18:41:54.050Z,2.80
2017-05-12T18:44:22.344Z,2.08
2017-05-12T18:46:50.615Z,1.68
2017-05-12T18:49:18.911Z,1.62
2017-05-12T18:51:47.203Z,1.50
2017-05-12T18:54:15.466Z,1.92
2017-05-12T18:56:43.763Z,2.38
2017-05-12T18:59:12.810Z,2.68
2017-05-12T19:01:41.135Z,2.78
2017-05-12T19:04:10.134Z,3.40
2017-05-12T19:06:39.370Z,3.30
2017-05-12T19:09:07.630Z,3.28
2017-05-12T19:11:35.902Z,2.80
2017-05-12T19:14:04.935Z,2.70
2017-05-12T19:16:33.234Z,2.60
2017-05-12T19:19:01.502Z,2.82
2017-05-12T19:21:29.811Z,2.88
2017-05-12T19:23:58.079Z,9.38
2017-05-12T19:26:26.390Z,9.82
2017-05-12T19:28:55.427Z,7.50
2017-05-12T19:31:23.711Z,4.32
2017-05-12T19:33:51.975Z,2.84
2017-05-12T19:36:20.276Z,2.80
2017-05-12T19:38:48.592Z,3.26
2017-05-12T19:41:16.854Z,5.12
2017-05-12T19:43:45.118Z,3.08
2017-05-12T19:46:13.595Z,3.60
2017-05-12T19:48:42.603Z,3.14
2017-05-12T19:51:10.867Z,3.36
2017-05-12T19:53:40.116Z,2.96
2017-05-12T19:56:08.389Z,5.40
2017-05-12T19:58:36.664Z,2.94
2017-05-12T20:01:04.967Z,5.34
2017-05-12T20:03:33.274Z,4.54
2017-05-12T20:06:01.539Z,3.76
2017-05-12T20:08:30.042Z,3.68
2017-05-12T20:10:58.312Z,3.65
2017-05-12T20:13:26.587Z,3.24
2017-05-12T20:15:54.898Z,3.58
2017-05-12T20:18:23.203Z,5.50
2017-05-12T20:20:51.470Z,6.40
2017-05-12T20:23:19.782Z,7.33
2017-05-12T20:25:48.063Z,3.58
2017-05-12T20:28:16.336Z,3.77
2017-05-12T20:30:44.887Z,2.77
2017-05-12T20:33:13.159Z,2.62
2017-05-12T20:35:41.432Z,1.82
2017-05-12T20:38:09.924Z,2.25
2017-05-12T20:40:38.202Z,2.43
2017-05-12T20:43:06.479Z,2.12
2017-05-12T20:45:34.780Z,2.28
2017-05-12T20:48:03.063Z,2.72
2017-05-12T20:50:31.383Z,2.30
2017-05-12T20:52:59.666Z,4.63
2017-05-12T20:55:27.939Z,8.55
2017-05-12T20:57:56.263Z,6.17
2017-05-12T21:00:24.543Z,25.33
2017-05-12T21:02:52.832Z,31.72
2017-05-12T21:05:21.144Z,27.30
2017-05-12T21:07:49.460Z,11.02
2017-05-12T21:10:17.751Z,14.95
2017-05-12T21:12:46.218Z,9.62
2017-05-12T21:15:14.495Z,4.92
2017-05-12T21:17:42.767Z,3.60
2017-05-12T21:20:11.171Z,3.62
2017-05-12T21:22:39.452Z,3.50
2017-05-12T21:25:07.730Z,3.07
2017-05-12T21:27:36.051Z,3.02
2017-05-12T21:30:04.331Z,2.67
2017-05-12T21:32:32.594Z,3.10
2017-05-12T21:35:01.106Z,2.77
2017-05-12T21:37:29.381Z,2.37
2017-05-12T21:39:57.647Z,2.45
2017-05-12T21:42:25.967Z,2.50
2017-05-12T21:44:54.232Z,2.78
2017-05-12T21:47:22.507Z,2.97
2017-05-12T21:49:50.823Z,3.30
2017-05-12T21:52:19.830Z,3.30
2017-05-12T21:54:47.331Z,4.27
2017-05-12T21:57:15.642Z,3.27
2017-05-12T21:59:43.912Z,4.07
2017-05-12T22:02:12.182Z,3.47
2017-05-12T22:04:40.491Z,4.05
2017-05-12T22:07:09.495Z,4.38
2017-05-12T22:09:37.763Z,4.88
2017-05-12T22:12:06.815Z,4.97
2017-05-12T22:14:35.087Z,3.95
2017-05-12T22:17:03.356Z,4.97
2017-05-12T22:19:31.646Z,4.23
2017-05-12T22:21:59.917Z,5.87
2017-05-12T22:24:28.522Z,4.97
2017-05-12T22:26:56.815Z,7.33
2017-05-12T22:29:26.066Z,7.43
2017-05-12T22:31:54.330Z,6.60
2017-05-12T22:34:22.590Z,5.82
2017-05-12T22:36:50.898Z,6.75
2017-05-12T22:39:19.166Z,5.82
2017-05-12T22:41:47.434Z,6.57
2017-05-12T22:44:15.758Z,6.02
2017-05-12T22:46:44.023Z,5.92
2017-05-12T22:49:12.286Z,7.23
2017-05-12T22:51:40.754Z,5.58
2017-05-12T22:54:09.013Z,6.02
2017-05-12T22:56:37.281Z,5.10
2017-05-12T22:59:05.590Z,5.42
2017-05-12T23:01:33.855Z,5.80
2017-05-12T23:04:02.127Z,5.75
2017-05-12T23:06:30.442Z,6.05
2017-05-12T23:08:58.712Z,5.13
2017-05-12T23:11:26.982Z,6.73
2017-05-12T23:13:55.454Z,6.28
2017-05-12T23:16:23.718Z,7.30
2017-05-12T23:18:51.987Z,10.90
2017-05-12T23:21:20.590Z,10.48
2017-05-12T23:23:48.854Z,7.73
2017-05-12T23:26:17.121Z,6.85
2017-05-12T23:28:45.442Z,9.15
2017-05-12T23:31:13.712Z,8.57
2017-05-12T23:33:41.984Z,8.40
2017-05-12T23:36:10.661Z,8.20
2017-05-12T23:38:38.925Z,6.43
2017-05-12T23:41:07.195Z,8.92
2017-05-12T23:43:36.007Z,9.15
2017-05-12T23:46:04.278Z,8.72
2017-05-12T23:48:32.546Z,7.38
2017-05-12T23:51:01.038Z,8.72
2017-05-12T23:53:29.311Z,10.03
2017-05-12T23:55:57.587Z,10.12
2017-05-12T23:58:25.900Z,10.45
